createdAt,value
2022-09-30T00:02:47.783Z,1.72
2022-09-30T00:05:39.192Z,2.35
2022-09-30T00:08:30.902Z,1.57
2022-09-30T00:11:25.630Z,2.27
2022-09-30T00:14:19.356Z,4.97
2022-09-30T00:17:10.689Z,2.98
2022-09-30T00:22:45.368Z,2.98
2022-09-30T00:25:36.527Z,6.75
2022-09-30T00:28:28.651Z,1.87
2022-09-30T00:34:07.992Z,3.15
2022-09-30T00:37:01.254Z,1.90
2022-09-30T00:42:30.848Z,3.22
2022-09-30T00:45:22.519Z,1.90
2022-09-30T00:51:08.636Z,3.35
2022-09-30T00:54:02.263Z,2.50
2022-09-30T00:56:56.319Z,1.98
2022-09-30T01:02:26.858Z,3.55
2022-09-30T01:05:18.622Z,1.75
2022-09-30T01:08:11.872Z,2.65
2022-09-30T01:11:07.859Z,2.25
2022-09-30T01:13:58.890Z,3.22
2022-09-30T01:16:58.176Z,2.75
2022-09-30T01:22:42.187Z,1.60
2022-09-30T01:28:57.570Z,3.15
2022-09-30T01:31:57.490Z,1.80
2022-09-30T01:37:31.986Z,3.35
2022-09-30T01:40:27.295Z,2.95
2022-09-30T01:43:25.254Z,3.95
2022-09-30T01:46:22.551Z,2.90
2022-09-30T01:49:19.084Z,3.22
2022-09-30T01:52:14.377Z,1.90
2022-09-30T01:57:49.085Z,1.92
2022-09-30T02:03:22.950Z,1.82
2022-09-30T02:06:17.231Z,1.82
2022-09-30T02:09:12.500Z,2.62
2022-09-30T02:12:09.496Z,1.77
2022-09-30T02:15:03.885Z,3.27
2022-09-30T02:17:58.645Z,2.45
2022-09-30T02:20:53.719Z,2.95
2022-09-30T02:23:47.741Z,2.15
2022-09-30T02:26:46.679Z,2.40
2022-09-30T02:32:33.383Z,1.10
2022-09-30T02:35:27.954Z,1.85
2022-09-30T02:38:22.481Z,1.10
2022-09-30T02:43:54.514Z,1.85
2022-09-30T02:49:30.419Z,1.70
2022-09-30T02:52:28.481Z,1.52
2022-09-30T02:58:04.172Z,2.45
2022-09-30T03:00:56.512Z,2.65
2022-09-30T03:03:51.137Z,1.80
2022-09-30T03:06:42.847Z,1.52
2022-09-30T03:09:36.223Z,2.45
2022-09-30T03:12:34.256Z,4.12
2022-09-30T03:15:33.057Z,2.90
2022-09-30T03:18:38.518Z,3.05
2022-09-30T03:21:38.819Z,2.87
2022-09-30T03:27:40.129Z,5.92
2022-09-30T03:30:34.161Z,2.52
2022-09-30T03:33:28.823Z,3.33
2022-09-30T03:36:24.569Z,2.70
2022-09-30T03:39:19.615Z,4.40
2022-09-30T03:44:56.925Z,5.05
2022-09-30T03:47:51.653Z,7.75
2022-09-30T03:53:26.365Z,1.77
2022-09-30T03:59:01.662Z,2.72
2022-09-30T04:01:53.881Z,1.10
2022-09-30T04:04:45.639Z,5.90
2022-09-30T04:07:37.684Z,2.27
2022-09-30T04:13:08.624Z,1.70
2022-09-30T04:15:59.509Z,1.52
2022-09-30T04:18:52.103Z,1.57
2022-09-30T04:21:43.418Z,3.12
2022-09-30T04:24:34.962Z,1.57
2022-09-30T04:27:26.384Z,3.02
2022-09-30T04:30:23.885Z,2.17
2022-09-30T04:33:14.111Z,1.05
2022-09-30T04:36:06.148Z,2.90
2022-09-30T04:38:58.112Z,1.50
2022-09-30T04:44:28.768Z,1.92
2022-09-30T04:47:20.004Z,1.82
2022-09-30T04:52:50.649Z,2.08
2022-09-30T04:58:20.990Z,2.47
2022-09-30T05:01:13.956Z,1.92
2022-09-30T05:04:05.852Z,2.55
2022-09-30T05:06:57.714Z,2.08
2022-09-30T05:12:27.298Z,2.02
2022-09-30T05:15:18.751Z,4.72
2022-09-30T05:18:09.913Z,2.92
2022-09-30T05:21:01.583Z,1.27
2022-09-30T05:23:54.347Z,1.62
2022-09-30T05:26:45.625Z,2.62
2022-09-30T05:29:37.268Z,1.75
2022-09-30T05:32:28.665Z,3.25
2022-09-30T05:35:20.202Z,4.72
2022-09-30T05:38:12.064Z,2.42
2022-09-30T05:41:08.815Z,3.77
2022-09-30T05:44:01.336Z,6.17
2022-09-30T05:46:53.125Z,2.55
2022-09-30T05:49:44.872Z,4.72
2022-09-30T05:52:36.873Z,2.20
2022-09-30T05:58:06.927Z,2.72
2022-09-30T06:01:03.603Z,3.27
2022-09-30T06:03:51.454Z,4.08
2022-09-30T06:06:43.107Z,4.17
2022-09-30T06:09:35.544Z,4.15
2022-09-30T06:12:27.793Z,2.42
2022-09-30T06:15:19.691Z,3.12
2022-09-30T06:18:17.018Z,2.77
2022-09-30T06:21:06.980Z,1.55
2022-09-30T06:23:58.297Z,4.03
2022-09-30T06:26:49.551Z,4.70
2022-09-30T06:29:41.040Z,1.50
2022-09-30T06:32:32.894Z,5.72
2022-09-30T06:35:26.567Z,2.15
2022-09-30T06:38:18.964Z,5.78
2022-09-30T06:41:11.649Z,3.05
2022-09-30T06:44:03.463Z,4.20
2022-09-30T06:46:56.048Z,3.20
2022-09-30T06:49:49.860Z,2.52
2022-09-30T06:52:40.096Z,2.72
2022-09-30T06:55:32.488Z,1.47
2022-09-30T06:58:24.504Z,4.62
2022-09-30T07:01:16.629Z,2.42
2022-09-30T07:04:10.182Z,2.30
2022-09-30T07:07:01.613Z,3.27
2022-09-30T07:12:36.332Z,3.52
2022-09-30T07:15:27.613Z,2.87
2022-09-30T07:18:20.248Z,3.30
2022-09-30T07:21:13.666Z,3.67
2022-09-30T07:24:05.740Z,6.83
2022-09-30T07:26:56.847Z,3.67
2022-09-30T07:32:26.351Z,4.37
2022-09-30T07:35:19.307Z,4.30
2022-09-30T07:38:10.707Z,5.65
2022-09-30T07:41:07.423Z,5.47
2022-09-30T07:44:00.007Z,3.65
2022-09-30T07:46:51.393Z,5.40
2022-09-30T07:49:43.574Z,2.45
2022-09-30T07:52:35.265Z,2.67
2022-09-30T07:55:26.829Z,3.12
2022-09-30T07:58:18.514Z,2.40
2022-09-30T08:01:11.958Z,3.75
2022-09-30T08:04:06.826Z,4.80
2022-09-30T08:07:00.959Z,4.10
2022-09-30T08:09:52.251Z,4.78
2022-09-30T08:12:43.500Z,2.83
2022-09-30T08:15:35.028Z,4.33
2022-09-30T08:18:26.132Z,2.92
2022-09-30T08:21:17.868Z,4.55
2022-09-30T08:24:09.216Z,4.72
2022-09-30T08:27:01.343Z,2.83
2022-09-30T08:32:34.793Z,2.05
2022-09-30T08:35:26.009Z,2.85
2022-09-30T08:38:17.593Z,1.95
2022-09-30T08:43:57.826Z,5.55
2022-09-30T08:46:57.419Z,2.37
2022-09-30T08:52:37.347Z,6.50
2022-09-30T08:55:25.350Z,9.95
2022-09-30T08:58:22.255Z,7.72
2022-09-30T09:01:18.952Z,3.52
2022-09-30T09:04:10.804Z,2.98
2022-09-30T09:07:06.075Z,2.70
2022-09-30T09:10:05.021Z,3.33
2022-09-30T09:13:02.485Z,6.50
2022-09-30T09:15:59.621Z,5.22
2022-09-30T09:19:00.980Z,2.87
2022-09-30T09:24:34.149Z,4.47
2022-09-30T09:27:27.556Z,2.77
2022-09-30T09:33:05.733Z,3.37
2022-09-30T09:36:02.568Z,3.17
2022-09-30T09:39:05.742Z,4.35
2022-09-30T09:42:10.421Z,3.95
2022-09-30T09:45:05.554Z,3.70
2022-09-30T09:47:59.631Z,2.70
2022-09-30T09:50:59.292Z,3.92
2022-09-30T09:53:56.058Z,3.33
2022-09-30T09:56:47.453Z,7.70
2022-09-30T09:59:40.036Z,4.87
2022-09-30T10:02:32.711Z,5.35
2022-09-30T10:08:13.650Z,4.33
2022-09-30T10:11:07.856Z,4.05
2022-09-30T10:14:01.694Z,3.45
2022-09-30T10:16:54.788Z,4.62
2022-09-30T10:22:31.426Z,3.77
2022-09-30T10:28:04.909Z,6.05
2022-09-30T10:33:45.264Z,2.58
2022-09-30T10:36:40.971Z,1.90
2022-09-30T10:39:35.146Z,1.82
2022-09-30T10:42:29.598Z,2.55
2022-09-30T10:48:03.750Z,2.10
2022-09-30T10:53:36.629Z,1.67
2022-09-30T10:56:47.858Z,4.20
2022-09-30T10:59:40.595Z,4.83
2022-09-30T11:05:21.354Z,2.87
2022-09-30T11:08:16.908Z,2.00
2022-09-30T11:11:11.289Z,2.55
2022-09-30T11:14:05.914Z,2.12
2022-09-30T11:17:04.602Z,2.58
2022-09-30T11:22:42.934Z,2.22
2022-09-30T11:25:41.476Z,2.02
2022-09-30T11:34:40.746Z,4.67
2022-09-30T11:37:39.117Z,2.17
2022-09-30T11:43:18.347Z,3.17
2022-09-30T11:49:26.029Z,2.70
2022-09-30T11:58:22.442Z,2.67
2022-09-30T12:01:00.326Z,3.80
2022-09-30T12:03:57.675Z,2.65
2022-09-30T12:06:57.943Z,2.10
2022-09-30T12:12:28.310Z,3.22
2022-09-30T12:15:24.086Z,2.33
2022-09-30T12:18:19.257Z,4.47
2022-09-30T12:21:16.255Z,2.22
2022-09-30T12:24:11.627Z,2.50
2022-09-30T12:27:03.606Z,2.40
2022-09-30T12:33:02.331Z,1.70
2022-09-30T12:36:30.299Z,2.27
2022-09-30T12:42:56.419Z,1.40
2022-09-30T12:46:08.042Z,1.70
2022-09-30T12:49:04.065Z,1.72
2022-09-30T12:51:59.684Z,2.10
2022-09-30T12:57:32.417Z,2.72
2022-09-30T13:03:10.602Z,1.75
2022-09-30T13:06:07.193Z,2.50
2022-09-30T13:09:22.516Z,1.40
2022-09-30T13:12:20.881Z,1.95
2022-09-30T13:19:15.910Z,4.15
2022-09-30T13:22:44.398Z,2.37
2022-09-30T13:28:39.705Z,1.17
2022-09-30T13:31:32.653Z,2.65
2022-09-30T13:34:26.506Z,3.05
2022-09-30T13:40:32.948Z,3.25
2022-09-30T13:43:19.458Z,1.60
2022-09-30T13:46:15.101Z,2.70
2022-09-30T13:51:49.733Z,2.35
2022-09-30T13:54:45.497Z,1.82
2022-09-30T13:57:40.534Z,1.65
2022-09-30T14:03:19.221Z,1.80
2022-09-30T14:06:21.562Z,2.60
2022-09-30T14:09:29.781Z,1.27
2022-09-30T14:15:37.977Z,3.50
2022-09-30T14:19:07.406Z,1.40
2022-09-30T14:22:02.089Z,1.82
2022-09-30T14:27:42.690Z,1.98
2022-09-30T14:30:38.958Z,2.55
2022-09-30T14:33:31.958Z,1.92
2022-09-30T14:36:25.480Z,2.33
2022-09-30T14:39:20.140Z,1.10
2022-09-30T14:42:16.360Z,1.20
2022-09-30T14:45:10.428Z,1.95
2022-09-30T14:48:05.282Z,3.95
2022-09-30T14:51:00.849Z,1.60
2022-09-30T14:54:01.501Z,2.00
2022-09-30T14:56:54.702Z,1.30
2022-09-30T14:59:46.521Z,1.50
2022-09-30T15:02:40.997Z,1.65
2022-09-30T15:08:16.549Z,1.80
2022-09-30T15:13:53.046Z,1.57
2022-09-30T15:16:49.692Z,1.52
2022-09-30T15:19:45.112Z,2.62
2022-09-30T15:22:36.396Z,4.42
2022-09-30T15:25:29.343Z,1.80
2022-09-30T15:28:20.563Z,3.72
2022-09-30T15:31:22.633Z,2.12
2022-09-30T15:34:21.734Z,1.72
2022-09-30T15:37:19.152Z,2.37
2022-09-30T15:42:59.670Z,2.92
2022-09-30T15:45:54.526Z,2.65
2022-09-30T15:48:46.098Z,2.35
2022-09-30T15:51:42.521Z,2.52
2022-09-30T15:54:48.456Z,1.80
2022-09-30T16:00:39.267Z,2.60
2022-09-30T16:03:32.281Z,2.25
2022-09-30T16:06:31.977Z,2.25
2022-09-30T16:09:35.353Z,1.87
2022-09-30T16:12:30.147Z,2.67
2022-09-30T16:18:01.411Z,2.50
2022-09-30T16:21:00.822Z,2.87
2022-09-30T16:23:52.639Z,4.00
2022-09-30T16:29:27.776Z,3.45
2022-09-30T16:32:19.363Z,2.02
2022-09-30T16:38:00.661Z,2.85
2022-09-30T16:43:33.067Z,2.60
2022-09-30T16:46:24.422Z,2.17
2022-09-30T16:49:18.444Z,1.75
2022-09-30T16:52:09.994Z,1.95
2022-09-30T16:57:41.149Z,1.50
2022-09-30T17:03:14.069Z,1.75
2022-09-30T17:06:05.136Z,1.85
2022-09-30T17:08:57.019Z,2.95
2022-09-30T17:11:50.201Z,3.25
2022-09-30T17:14:44.037Z,2.17
2022-09-30T17:17:35.908Z,2.15
2022-09-30T17:20:27.906Z,1.90
2022-09-30T17:23:19.435Z,1.98
2022-09-30T17:26:11.048Z,2.17
2022-09-30T17:29:21.030Z,2.52
2022-09-30T17:31:57.280Z,3.08
2022-09-30T17:37:39.334Z,2.12
2022-09-30T17:43:14.556Z,2.67
2022-09-30T17:46:07.677Z,3.60
2022-09-30T17:48:58.947Z,2.70
2022-09-30T17:51:50.065Z,4.03
2022-09-30T17:54:42.338Z,2.20
2022-09-30T17:57:43.562Z,2.05
2022-09-30T18:00:38.094Z,2.92
2022-09-30T18:03:29.735Z,3.67
2022-09-30T18:06:21.988Z,3.37
2022-09-30T18:09:14.627Z,2.75
2022-09-30T18:12:07.611Z,2.55
2022-09-30T18:14:59.748Z,2.27
2022-09-30T18:17:51.359Z,2.67
2022-09-30T18:20:45.899Z,3.30
2022-09-30T18:23:37.285Z,2.75
2022-09-30T18:26:33.178Z,3.52
2022-09-30T18:29:24.475Z,3.90
2022-09-30T18:32:17.813Z,3.00
2022-09-30T18:35:12.493Z,2.98
2022-09-30T18:38:04.480Z,3.35
2022-09-30T18:40:56.000Z,2.27
2022-09-30T18:46:29.221Z,1.00
2022-09-30T18:49:20.737Z,1.20
2022-09-30T18:52:12.051Z,1.20
2022-09-30T18:55:03.738Z,1.02
2022-09-30T18:57:58.556Z,2.37
2022-09-30T19:00:49.989Z,3.17
2022-09-30T19:03:41.496Z,3.98
2022-09-30T19:06:33.374Z,1.55
2022-09-30T19:09:26.831Z,1.70
2022-09-30T19:12:21.288Z,3.60
2022-09-30T19:18:28.783Z,5.05
2022-09-30T19:21:23.695Z,3.83
2022-09-30T19:24:16.586Z,4.42
2022-09-30T19:27:10.577Z,4.50
2022-09-30T19:30:01.898Z,4.97
2022-09-30T19:32:59.417Z,4.67
2022-09-30T19:35:54.076Z,4.10
2022-09-30T19:38:48.160Z,4.87
2022-09-30T19:41:39.429Z,4.17
2022-09-30T19:47:53.530Z,4.47
2022-09-30T19:50:45.190Z,6.08
2022-09-30T19:53:41.791Z,4.20
2022-09-30T19:56:33.757Z,5.70
2022-09-30T19:59:26.478Z,4.62
2022-09-30T20:02:19.017Z,6.83
2022-09-30T20:05:11.686Z,4.05
2022-09-30T20:08:03.323Z,5.08
2022-09-30T20:10:55.661Z,6.35
2022-09-30T20:13:47.614Z,6.10
2022-09-30T20:16:46.772Z,5.60
2022-09-30T20:19:41.091Z,6.42
2022-09-30T20:22:33.064Z,5.28
2022-09-30T20:25:24.673Z,6.37
2022-09-30T20:28:16.219Z,4.40
2022-09-30T20:31:11.242Z,5.17
2022-09-30T20:34:04.845Z,5.60
2022-09-30T20:36:58.746Z,6.28
2022-09-30T20:39:50.637Z,7.17
2022-09-30T20:42:52.504Z,8.23
2022-09-30T20:45:46.559Z,6.50
2022-09-30T20:51:21.843Z,6.40
2022-09-30T20:57:07.552Z,9.40
2022-09-30T20:59:47.890Z,6.70
2022-09-30T21:02:39.290Z,6.50
2022-09-30T21:05:33.689Z,4.87
2022-09-30T21:08:25.324Z,6.20
2022-09-30T21:11:16.519Z,5.17
2022-09-30T21:14:09.175Z,6.65
2022-09-30T21:17:01.073Z,6.42
2022-09-30T21:19:52.479Z,7.08
2022-09-30T21:22:43.868Z,7.55
2022-09-30T21:25:37.567Z,6.62
2022-09-30T21:28:29.458Z,7.65
2022-09-30T21:31:23.648Z,6.33
2022-09-30T21:34:16.369Z,8.55
2022-09-30T21:37:07.635Z,4.80
2022-09-30T21:39:58.704Z,7.17
2022-09-30T21:42:50.227Z,5.95
2022-09-30T21:45:42.651Z,5.53
2022-09-30T21:48:35.221Z,7.62
2022-09-30T21:51:27.924Z,6.70
2022-09-30T21:54:19.405Z,5.08
2022-09-30T21:57:10.891Z,5.92
2022-09-30T22:00:02.473Z,5.90
2022-09-30T22:02:55.452Z,5.12
2022-09-30T22:05:52.993Z,5.45
2022-09-30T22:08:44.535Z,5.17
2022-09-30T22:11:36.334Z,4.70
2022-09-30T22:14:28.001Z,6.85
2022-09-30T22:17:19.530Z,6.95
2022-09-30T22:20:13.296Z,5.87
2022-09-30T22:23:04.623Z,5.17
2022-09-30T22:25:57.672Z,7.15
2022-09-30T22:28:50.043Z,5.03
2022-09-30T22:31:41.843Z,5.25
2022-09-30T22:34:51.209Z,9.53
2022-09-30T22:38:08.259Z,5.55
2022-09-30T22:41:00.336Z,5.20
2022-09-30T22:43:51.921Z,4.30
2022-09-30T22:46:43.555Z,4.47
2022-09-30T22:49:35.202Z,6.42
2022-09-30T22:52:28.388Z,4.37
2022-09-30T22:55:20.732Z,5.87
2022-09-30T22:58:12.059Z,4.28
2022-09-30T23:01:03.499Z,4.65
2022-09-30T23:03:55.922Z,5.00
2022-09-30T23:06:49.594Z,5.28
2022-09-30T23:09:41.075Z,5.62
2022-09-30T23:12:32.351Z,5.70
2022-09-30T23:15:23.660Z,6.65
2022-09-30T23:18:16.497Z,4.70
2022-09-30T23:21:10.487Z,4.97
2022-09-30T23:24:02.960Z,4.95
2022-09-30T23:26:55.782Z,4.12
2022-09-30T23:29:46.773Z,5.50
2022-09-30T23:32:39.342Z,4.58
2022-09-30T23:35:30.740Z,5.45
2022-09-30T23:38:24.910Z,5.78
2022-09-30T23:41:16.384Z,5.10
2022-09-30T23:47:09.573Z,4.60
2022-09-30T23:50:00.892Z,4.97
2022-09-30T23:52:52.379Z,5.08
2022-09-30T23:55:43.820Z,3.98
2022-09-30T23:58:37.535Z,6.08
